Monday, July 23, 2018, 11:30 AM GMT
Back to Local

CXMY, Malay Falls , N. S.

Location: , , Canada Lat: 44.983
Local Time: 11:30 AM GMT (11:30 GMT) Lon: -62.483
Time Zone: GMT Elev: 131 ft

Show me the last for .
Show Coded

Time T Td Feel RH Dir Speed Gust Alt SLP Vis Weather Sky Remarks
2018-07-23 11:00 70 70 - 99 - - - - - 0 None
2018-07-23 10:00 69 67 - 93 - - - - - 0 None
2018-07-23 09:00 68 68 - 99 - - - - - 0 None
2018-07-23 08:00 69 69 - 99 - - - - - 0 None
2018-07-23 07:00 69 69 - 99 - - - - - 0 None
2018-07-23 06:00 69 68 - 98 - - - - - 0 None
2018-07-23 05:00 68 68 - 99 - - - - - 0 None
2018-07-23 04:00 68 68 - 98 - - - - - 0 None
2018-07-23 03:00 68 68 - 98 - - - - - 0 None
2018-07-23 02:00 67 65 - 92 - - - - - 0 None
2018-07-23 01:00 68 67 - 98 - - - - - 0 None
2018-07-23 00:00 68 67 - 98 - - - - - 0 None
2018-07-22 23:00 69 68 - 95 - - - - - 0 None
2018-07-22 22:00 71 70 76 94 - - - - - 0 None
2018-07-22 21:00 72 70 77 93 - - - - - 0 None
2018-07-22 20:00 75 72 79 90 - - - - - 0 None
2018-07-22 19:00 74 71 78 89 - - - - - 0 None
2018-07-22 18:00 74 71 78 91 - - - - - 0 1-hr Precip Total: 0.04"
2018-07-22 17:00 73 71 77 94 - - - - - 0 None
2018-07-22 16:00 70 69 - 98 - - - - - 0 None
2018-07-22 15:00 68 67 - 98 - - - - - 0 None
2018-07-22 14:00 67 66 - 99 - - - - - 0 1-hr Precip Total: 0.12"
2018-07-22 13:00 64 64 - 99 - - - - - 0 1-hr Precip Total: 0.05"
2018-07-22 12:00 63 63 - 99 - - - - - 0 1-hr Precip Total: 0.34"

Support USWX by starting your Amazon purchase here.